Time;durP1;ratioP1;P1;durP2;ratioP2;P2;SDS_P1;SDS_P2;PMS_P1;PMS_P2;Temp;Humidity;BMP_temperature;BMP_pressure;BME280_temperature;BME280_humidity;BME280_pressure;Samples;Min_cycle;Max_cycle;Signal;HPM_P1;HPM_P2
2023/06/06 00:00:59;;;;;;;7.47;5.38;;;11.90;99.90;;;;;;5094817;28;20059;-66
2023/06/06 00:03:26;;;;;;;11.88;5.97;;;11.80;99.90;;;;;;5094918;28;20044;-66
2023/06/06 00:05:53;;;;;;;10.52;5.47;;;11.80;99.90;;;;;;5095008;28;20066;-65
2023/06/06 00:08:23;;;;;;;8.15;5.57;;;11.80;99.90;;;;;;5094584;28;20058;-65
2023/06/06 00:10:50;;;;;;;7.90;5.50;;;11.70;99.90;;;;;;5094638;28;20154;-64
2023/06/06 00:13:17;;;;;;;8.20;5.78;;;11.70;99.90;;;;;;5094674;28;20124;-65
2023/06/06 00:15:44;;;;;;;9.23;6.10;;;11.70;99.90;;;;;;5093679;28;20048;-64
2023/06/06 00:18:11;;;;;;;8.25;5.90;;;11.70;99.90;;;;;;5092969;28;20499;-65
2023/06/06 00:20:38;;;;;;;8.55;5.68;;;11.70;99.90;;;;;;5094219;28;20040;-65
2023/06/06 00:23:07;;;;;;;9.35;5.80;;;11.60;99.90;;;;;;5093489;28;20351;-64
2023/06/06 00:25:34;;;;;;;9.70;5.90;;;11.60;99.90;;;;;;5094470;28;20059;-67
2023/06/06 00:28:00;;;;;;;10.20;5.82;;;11.60;99.90;;;;;;5093987;28;20052;-65
2023/06/06 00:30:26;;;;;;;10.00;5.78;;;11.50;99.90;;;;;;5093799;28;20048;-66
2023/06/06 00:32:53;;;;;;;8.55;5.78;;;11.60;99.90;;;;;;5094897;28;20048;-66
2023/06/06 00:35:19;;;;;;;9.00;6.00;;;11.60;99.90;;;;;;5094500;28;20055;-65
2023/06/06 00:37:45;;;;;;;8.15;5.35;;;11.60;99.90;;;;;;5093642;28;20345;-65
2023/06/06 00:40:12;;;;;;;11.45;6.00;;;11.60;99.90;;;;;;5093863;28;20062;-66
2023/06/06 00:42:38;;;;;;;9.73;5.72;;;11.60;99.90;;;;;;5094114;28;20047;-67
2023/06/06 00:45:05;;;;;;;10.05;5.97;;;11.50;99.90;;;;;;5094072;28;20048;-65
2023/06/06 00:47:31;;;;;;;8.55;6.10;;;11.50;99.90;;;;;;5092691;28;20047;-66
2023/06/06 00:49:58;;;;;;;8.32;5.75;;;11.50;99.90;;;;;;5093301;28;20051;-66
2023/06/06 00:52:24;;;;;;;10.75;5.85;;;11.40;99.90;;;;;;5093952;28;20452;-67
2023/06/06 00:54:51;;;;;;;10.15;5.95;;;11.40;99.90;;;;;;5092779;28;20052;-66
2023/06/06 00:57:18;;;;;;;8.48;5.63;;;11.50;99.90;;;;;;5093782;28;20048;-67
2023/06/06 00:59:46;;;;;;;9.45;5.80;;;11.40;99.90;;;;;;5093993;28;20091;-65
2023/06/06 01:02:17;;;;;;;9.70;5.65;;;11.40;99.90;;;;;;5093727;28;20047;-66
2023/06/06 01:04:46;;;;;;;9.30;5.70;;;11.40;99.90;;;;;;5093639;28;20550;-65
2023/06/06 01:07:17;;;;;;;10.65;6.25;;;11.40;99.90;;;;;;5093605;28;20059;-66
2023/06/06 01:09:45;;;;;;;9.38;5.70;;;11.30;99.90;;;;;;5093453;28;20052;-65
2023/06/06 01:12:20;;;;;;;10.88;6.20;;;11.30;99.90;;;;;;5093364;28;20048;-65
2023/06/06 01:14:56;;;;;;;9.88;6.15;;;11.20;99.90;;;;;;5093407;28;20044;-66
2023/06/06 01:17:27;;;;;;;9.63;6.22;;;11.10;99.90;;;;;;5093364;28;20044;-64
2023/06/06 01:19:56;;;;;;;10.95;6.45;;;11.10;99.90;;;;;;5093223;28;20055;-65
2023/06/06 01:22:27;;;;;;;8.82;5.93;;;11.10;99.90;;;;;;5073375;28;20056;-66
2023/06/06 01:24:55;;;;;;;8.55;5.70;;;11.10;99.90;;;;;;5073408;28;20152;-66
2023/06/06 01:27:22;;;;;;;9.82;5.97;;;11.10;99.90;;;;;;5072470;28;20348;-65
2023/06/06 01:29:49;;;;;;;10.23;6.13;;;11.00;99.90;;;;;;5072221;28;20052;-66
2023/06/06 01:32:37;;;;;;;11.10;5.78;;;11.00;99.90;;;;;;5092954;28;20056;-65
2023/06/06 01:35:28;;;;;;;9.30;5.88;;;11.00;99.90;;;;;;5092867;28;20044;-64
2023/06/06 01:38:21;;;;;;;9.35;5.90;;;11.00;99.90;;;;;;5092399;28;20054;-65
2023/06/06 01:40:51;;;;;;;10.57;5.97;;;10.90;99.90;;;;;;5092538;28;20456;-66
2023/06/06 01:43:18;;;;;;;9.35;5.38;;;10.90;99.90;;;;;;5093012;28;20036;-65
2023/06/06 01:45:46;;;;;;;9.75;6.25;;;10.90;99.90;;;;;;5092651;28;20472;-63
2023/06/06 01:48:12;;;;;;;10.20;6.15;;;10.90;99.90;;;;;;5092151;28;20457;-65
2023/06/06 01:50:39;;;;;;;9.80;5.88;;;10.90;99.90;;;;;;5092161;28;20460;-64
2023/06/06 01:53:05;;;;;;;9.45;5.65;;;10.90;99.90;;;;;;5092894;28;20063;-63
2023/06/06 01:55:32;;;;;;;8.65;5.72;;;10.80;99.90;;;;;;5092663;28;20040;-65
2023/06/06 01:57:58;;;;;;;10.57;5.78;;;10.80;99.90;;;;;;5092484;28;20044;-66
2023/06/06 02:00:25;;;;;;;8.75;5.50;;;10.70;99.90;;;;;;5092439;28;20036;-65
2023/06/06 02:02:51;;;;;;;10.63;5.97;;;10.80;99.90;;;;;;5092701;28;20048;-63
2023/06/06 02:05:19;;;;;;;10.10;6.00;;;10.80;99.90;;;;;;5092328;28;20130;-65
2023/06/06 02:07:45;;;;;;;10.98;5.78;;;10.70;99.90;;;;;;5091996;28;20081;-66
2023/06/06 02:10:11;;;;;;;9.65;5.95;;;10.70;99.90;;;;;;5092278;28;20056;-65
2023/06/06 02:12:37;;;;;;;9.45;6.22;;;10.70;99.90;;;;;;5091961;28;20472;-65
2023/06/06 02:15:05;;;;;;;9.80;5.75;;;10.70;99.90;;;;;;5092256;28;20052;-65
2023/06/06 02:17:31;;;;;;;10.20;6.03;;;10.70;99.90;;;;;;5091863;28;20071;-65
2023/06/06 02:19:58;;;;;;;11.25;6.00;;;10.70;99.90;;;;;;5092024;28;20043;-64
2023/06/06 02:22:24;;;;;;;9.50;5.85;;;10.70;99.90;;;;;;5072071;28;20044;-67
2023/06/06 02:24:52;;;;;;;11.18;5.75;;;10.70;99.90;;;;;;5082860;28;20047;-64
2023/06/06 02:27:19;;;;;;;11.02;5.63;;;10.70;99.90;;;;;;5092124;28;20460;-64
2023/06/06 02:29:45;;;;;;;10.55;5.78;;;10.70;99.90;;;;;;5091859;28;20067;-65
2023/06/06 02:32:12;;;;;;;9.73;6.03;;;10.70;99.90;;;;;;5091881;28;20428;-66
2023/06/06 02:34:38;;;;;;;9.50;5.82;;;10.70;99.90;;;;;;5091614;28;20589;-64
2023/06/06 02:37:08;;;;;;;12.43;6.05;;;10.70;99.90;;;;;;5092330;28;20044;-66
2023/06/06 02:39:35;;;;;;;10.77;6.10;;;10.70;99.90;;;;;;5091800;28;20047;-66
2023/06/06 02:42:05;;;;;;;12.52;6.45;;;10.60;99.90;;;;;;5091484;28;20117;-64
2023/06/06 02:44:32;;;;;;;12.23;5.97;;;10.70;99.90;;;;;;5091956;28;20047;-65
2023/06/06 02:46:58;;;;;;;9.90;6.35;;;10.70;99.90;;;;;;5091926;28;20052;-66
2023/06/06 02:49:27;;;;;;;10.63;6.50;;;10.60;99.90;;;;;;5091463;28;20048;-66
2023/06/06 02:51:55;;;;;;;10.52;6.18;;;10.60;99.90;;;;;;5091830;28;20059;-66
2023/06/06 02:54:21;;;;;;;10.40;6.18;;;10.60;99.90;;;;;;5091045;28;20484;-65
2023/06/06 02:56:47;;;;;;;11.48;5.72;;;10.60;99.90;;;;;;5091915;28;20044;-63
2023/06/06 02:59:14;;;;;;;11.52;6.53;;;10.50;99.90;;;;;;5091146;28;20432;-66
2023/06/06 03:01:44;;;;;;;12.15;6.93;;;10.60;99.90;;;;;;5091518;28;20116;-65
2023/06/06 03:04:14;;;;;;;8.98;6.68;;;10.50;99.90;;;;;;5090820;28;20432;-65
2023/06/06 03:06:41;;;;;;;9.82;6.22;;;10.40;99.90;;;;;;5090683;28;20409;-65
2023/06/06 03:09:09;;;;;;;10.13;6.07;;;10.50;99.90;;;;;;5091307;28;20113;-65
2023/06/06 03:11:35;;;;;;;13.20;6.60;;;10.40;99.90;;;;;;5091553;28;20048;-65
2023/06/06 03:14:02;;;;;;;10.07;6.63;;;10.40;99.90;;;;;;5091318;28;20464;-65
2023/06/06 03:16:28;;;;;;;11.80;6.63;;;10.40;99.90;;;;;;5091785;28;20058;-66
2023/06/06 03:18:55;;;;;;;9.93;5.97;;;10.40;99.90;;;;;;5091289;28;20055;-65
2023/06/06 03:21:22;;;;;;;13.43;8.05;;;10.40;99.90;;;;;;5091783;28;20052;-66
2023/06/06 03:23:49;;;;;;;11.13;7.10;;;10.40;99.90;;;;;;5091966;28;20044;-66
2023/06/06 03:26:15;;;;;;;9.82;6.63;;;10.40;99.90;;;;;;5091829;28;20048;-65
2023/06/06 03:28:42;;;;;;;11.30;7.32;;;10.40;99.90;;;;;;5091246;28;20059;-65
2023/06/06 03:31:08;;;;;;;10.20;6.43;;;10.40;99.90;;;;;;5090874;28;20051;-67
2023/06/06 03:33:37;;;;;;;10.35;7.35;;;10.40;99.90;;;;;;5091637;28;20150;-66
2023/06/06 03:36:06;;;;;;;12.73;6.80;;;10.40;99.90;;;;;;5091640;28;20078;-66
2023/06/06 03:38:32;;;;;;;13.93;6.90;;;10.40;99.90;;;;;;5091618;28;20041;-65
2023/06/06 03:40:58;;;;;;;14.55;7.03;;;10.40;99.90;;;;;;5092158;28;20036;-65
2023/06/06 03:43:25;;;;;;;12.35;6.97;;;10.50;99.90;;;;;;5091987;28;20445;-66
2023/06/06 03:45:51;;;;;;;14.73;6.95;;;10.50;99.90;;;;;;5091563;28;20048;-67
2023/06/06 03:48:18;;;;;;;11.18;6.43;;;10.50;99.90;;;;;;5090951;28;20117;-65
2023/06/06 03:50:44;;;;;;;10.45;6.82;;;10.50;99.90;;;;;;5090072;28;20176;-67
2023/06/06 03:53:10;;;;;;;13.68;7.93;;;10.50;99.90;;;;;;5093217;28;20473;-67
2023/06/06 03:55:38;;;;;;;10.63;7.03;;;10.60;99.90;;;;;;5093908;28;20052;-66
2023/06/06 03:58:04;;;;;;;10.45;6.13;;;10.50;99.90;;;;;;5094391;28;20372;-65
2023/06/06 04:00:31;;;;;;;13.13;6.60;;;10.60;99.90;;;;;;5094692;28;20101;-65
2023/06/06 04:02:57;;;;;;;9.10;6.45;;;10.60;99.90;;;;;;5095028;28;20113;-65
2023/06/06 04:05:24;;;;;;;11.85;6.88;;;10.70;99.90;;;;;;5094738;28;20108;-67
2023/06/06 04:07:50;;;;;;;13.93;6.78;;;10.70;99.90;;;;;;5094677;28;20044;-65
2023/06/06 04:10:18;;;;;;;10.00;6.40;;;10.70;99.90;;;;;;5094472;28;20048;-66
2023/06/06 04:12:45;;;;;;;13.57;7.20;;;10.70;99.90;;;;;;5094695;28;20052;-65
2023/06/06 04:15:11;;;;;;;11.02;6.85;;;10.80;99.90;;;;;;5094489;28;20052;-66
2023/06/06 04:17:37;;;;;;;11.73;6.93;;;10.80;99.90;;;;;;5094755;28;20122;-65
2023/06/06 04:20:05;;;;;;;10.63;6.60;;;10.80;99.90;;;;;;5093869;28;20047;-65
2023/06/06 04:22:31;;;;;;;9.70;6.68;;;10.90;99.90;;;;;;5074341;28;20071;-64
2023/06/06 04:24:57;;;;;;;11.93;7.40;;;11.00;99.90;;;;;;5074427;28;20048;-64
2023/06/06 04:27:23;;;;;;;13.68;6.65;;;11.00;99.90;;;;;;5073836;28;20041;-64
2023/06/06 04:29:51;;;;;;;14.50;7.38;;;11.00;99.90;;;;;;5074089;28;20055;-66
2023/06/06 04:32:19;;;;;;;11.48;7.20;;;11.00;99.90;;;;;;5093246;28;20048;-67
2023/06/06 04:34:46;;;;;;;14.35;6.90;;;11.00;99.90;;;;;;5093879;28;20479;-66
2023/06/06 04:37:13;;;;;;;10.88;7.30;;;11.10;99.90;;;;;;5093683;28;20044;-67
2023/06/06 04:39:40;;;;;;;10.75;6.55;;;11.10;99.90;;;;;;5094159;28;20056;-65
2023/06/06 04:42:07;;;;;;;11.27;6.72;;;11.20;99.90;;;;;;5093940;28;20051;-67
2023/06/06 04:44:34;;;;;;;12.18;7.13;;;11.30;99.90;;;;;;5093050;28;20054;-67
2023/06/06 04:47:03;;;;;;;14.38;7.10;;;11.30;99.90;;;;;;5079222;28;20056;-66
2023/06/06 04:49:35;;;;;;;11.02;7.25;;;11.30;99.90;;;;;;5083298;28;20051;-66
2023/06/06 04:52:06;;;;;;;12.52;6.47;;;11.40;99.90;;;;;;5084880;28;20070;-66
2023/06/06 04:54:33;;;;;;;11.90;6.88;;;11.90;99.90;;;;;;5083873;28;20059;-66
2023/06/06 04:57:00;;;;;;;11.32;7.00;;;12.80;99.90;;;;;;5081883;28;20055;-66
2023/06/06 04:59:27;;;;;;;10.75;6.18;;;13.70;99.90;;;;;;5083766;28;20242;-67
2023/06/06 05:01:57;;;;;;;12.02;6.47;;;14.50;99.90;;;;;;5085152;28;20048;-66
2023/06/06 05:04:25;;;;;;;10.18;6.35;;;15.20;99.90;;;;;;5082807;28;20384;-66
2023/06/06 05:06:51;;;;;;;11.07;6.95;;;15.70;99.90;;;;;;5079580;28;20389;-65
2023/06/06 05:09:17;;;;;;;12.27;6.63;;;16.00;99.90;;;;;;5073303;28;20049;-64
2023/06/06 05:11:49;;;;;;;12.15;6.63;;;16.40;99.90;;;;;;5087290;28;20364;-65
2023/06/06 05:14:15;;;;;;;12.43;6.22;;;16.70;99.90;;;;;;5093689;28;20048;-65
2023/06/06 05:16:46;;;;;;;10.13;5.60;;;16.90;99.90;;;;;;5075726;28;20174;-65
2023/06/06 05:19:15;;;;;;;10.55;6.30;;;17.00;99.90;;;;;;5093150;28;20055;-65
2023/06/06 05:21:42;;;;;;;7.68;5.43;;;17.30;99.90;;;;;;5092834;28;20048;-64
2023/06/06 05:24:08;;;;;;;7.80;5.47;;;17.00;99.90;;;;;;5093583;28;20322;-64
2023/06/06 05:26:34;;;;;;;9.30;5.18;;;17.60;99.90;;;;;;5093090;28;20051;-63
2023/06/06 05:29:01;;;;;;;10.13;5.45;;;17.70;99.90;;;;;;5092524;28;20040;-64
2023/06/06 05:31:27;;;;;;;13.25;5.82;;;18.00;99.90;;;;;;5092633;28;20048;-65
2023/06/06 05:33:55;;;;;;;9.48;5.50;;;18.00;99.90;;;;;;5090107;28;20558;-65
2023/06/06 05:36:21;;;;;;;9.18;5.38;;;17.90;99.90;;;;;;5092302;28;20044;-65
2023/06/06 05:38:48;;;;;;;9.27;5.57;;;18.20;99.90;;;;;;5092854;28;20048;-64
2023/06/06 05:41:14;;;;;;;9.85;5.72;;;18.00;99.90;;;;;;5091325;28;20067;-64
2023/06/06 05:43:45;;;;;;;8.40;5.35;;;18.00;99.90;;;;;;5092852;28;20044;-63
2023/06/06 05:46:11;;;;;;;9.35;5.50;;;18.00;99.90;;;;;;5091859;28;20044;-63
2023/06/06 05:48:38;;;;;;;8.65;5.32;;;18.10;99.90;;;;;;5078092;28;20049;-64
2023/06/06 05:51:05;;;;;;;7.93;4.95;;;18.30;99.90;;;;;;5079397;28;20047;-64
2023/06/06 05:53:31;;;;;;;7.95;5.05;;;18.40;99.90;;;;;;5092199;28;20055;-64
2023/06/06 05:55:58;;;;;;;8.35;4.75;;;18.60;99.90;;;;;;5091485;28;20063;-66
2023/06/06 05:58:24;;;;;;;10.75;5.20;;;18.80;99.90;;;;;;5091418;28;20423;-64
2023/06/06 06:00:51;;;;;;;8.63;4.90;;;18.80;99.90;;;;;;5092467;28;20047;-65
2023/06/06 06:03:17;;;;;;;10.98;5.13;;;18.70;99.90;;;;;;5092457;28;20054;-63
2023/06/06 06:05:44;;;;;;;8.77;5.28;;;19.00;99.90;;;;;;5091742;28;20796;-63
2023/06/06 06:08:11;;;;;;;10.63;5.22;;;19.30;99.90;;;;;;5091692;28;20052;-63
2023/06/06 06:10:38;;;;;;;7.82;4.53;;;19.60;99.90;;;;;;5091591;28;20460;-64
2023/06/06 06:13:05;;;;;;;8.32;4.38;;;19.80;99.90;;;;;;5091908;28;20047;-64
2023/06/06 06:15:33;;;;;;;9.10;4.57;;;20.20;99.90;;;;;;5091094;28;20658;-65
2023/06/06 06:18:00;;;;;;;8.27;4.28;;;20.30;99.90;;;;;;5091328;28;20062;-63
2023/06/06 06:20:27;;;;;;;9.00;5.03;;;20.30;99.90;;;;;;5091644;28;20072;-64
2023/06/06 06:22:53;;;;;;;9.07;4.78;;;20.10;99.90;;;;;;5092251;28;20109;-65
2023/06/06 06:25:20;;;;;;;8.73;4.60;;;20.00;99.90;;;;;;5092363;28;20141;-63
2023/06/06 06:27:47;;;;;;;8.98;4.45;;;19.80;99.90;;;;;;5091970;28;20419;-63
2023/06/06 06:30:14;;;;;;;12.00;4.35;;;20.00;99.90;;;;;;5090864;28;20056;-65
2023/06/06 06:32:42;;;;;;;8.43;4.57;;;20.20;99.90;;;;;;5071913;28;20075;-64
2023/06/06 06:35:09;;;;;;;7.55;4.28;;;20.20;99.90;;;;;;5071814;28;20055;-63
2023/06/06 06:37:37;;;;;;;7.10;4.63;;;20.40;99.90;;;;;;5071959;28;20041;-65
2023/06/06 06:40:10;;;;;;;7.28;4.68;;;20.80;99.90;;;;;;5071769;28;20048;-67
2023/06/06 06:42:41;;;;;;;9.52;4.93;;;20.90;99.90;;;;;;5091734;28;20363;-64
2023/06/06 06:45:12;;;;;;;8.73;4.38;;;20.90;99.90;;;;;;5092039;28;20055;-64
2023/06/06 06:47:40;;;;;;;8.27;4.53;;;21.10;99.90;;;;;;5091739;28;20048;-64
2023/06/06 06:50:07;;;;;;;7.88;4.53;;;21.00;99.90;;;;;;5091667;28;20052;-64
2023/06/06 06:52:35;;;;;;;8.35;4.85;;;21.10;99.90;;;;;;5091746;28;20113;-64
2023/06/06 06:55:06;;;;;;;10.55;4.78;;;21.00;99.90;;;;;;5091968;28;20044;-64
2023/06/06 06:57:33;;;;;;;11.70;5.15;;;20.60;99.90;;;;;;5091362;28;20361;-64
2023/06/06 07:00:00;;;;;;;8.48;4.47;;;19.80;99.90;;;;;;5091989;28;20113;-63
2023/06/06 07:02:27;;;;;;;8.73;5.13;;;19.20;99.90;;;;;;5091493;28;20044;-65
2023/06/06 07:04:57;;;;;;;11.48;4.93;;;18.80;99.90;;;;;;5091468;28;20715;-65
2023/06/06 07:07:24;;;;;;;9.20;4.70;;;18.60;99.90;;;;;;5091486;28;20048;-65
2023/06/06 07:09:51;;;;;;;9.88;4.70;;;18.60;99.90;;;;;;5092189;28;20063;-63
2023/06/06 07:12:17;;;;;;;9.20;4.63;;;18.60;99.90;;;;;;5091653;28;20052;-64
2023/06/06 07:14:44;;;;;;;10.18;4.40;;;18.60;99.90;;;;;;5091755;28;20064;-64
2023/06/06 07:17:10;;;;;;;9.05;4.90;;;18.60;99.90;;;;;;5091610;28;20048;-64
2023/06/06 07:19:36;;;;;;;8.90;4.75;;;18.70;99.90;;;;;;5091636;28;20044;-64
2023/06/06 07:22:04;;;;;;;9.98;4.80;;;18.90;99.90;;;;;;5091472;28;20048;-63
2023/06/06 07:24:31;;;;;;;9.50;4.80;;;18.80;99.90;;;;;;5091754;28;20052;-63
2023/06/06 07:26:57;;;;;;;9.38;4.97;;;18.80;99.90;;;;;;5092936;28;20485;-65
2023/06/06 07:29:24;;;;;;;9.63;4.53;;;19.00;99.90;;;;;;5095486;28;20477;-64
2023/06/06 07:31:51;;;;;;;11.55;4.90;;;18.80;99.90;;;;;;5095247;28;20403;-65
2023/06/06 07:34:17;;;;;;;10.05;5.10;;;19.10;99.90;;;;;;5095667;28;20050;-65
2023/06/06 07:36:43;;;;;;;8.82;4.65;;;19.30;99.90;;;;;;5094551;28;20795;-65
2023/06/06 07:39:10;;;;;;;10.38;5.13;;;19.50;99.90;;;;;;5095386;28;20105;-64
2023/06/06 07:41:38;;;;;;;9.95;5.30;;;19.50;99.90;;;;;;5093851;28;20082;-65
2023/06/06 07:44:04;;;;;;;9.25;4.70;;;19.50;99.90;;;;;;5095521;28;20094;-64
2023/06/06 07:46:30;;;;;;;9.10;5.10;;;19.60;99.90;;;;;;5093907;28;20125;-64
2023/06/06 07:48:58;;;;;;;10.10;4.35;;;19.50;99.90;;;;;;5094469;28;20047;-65
2023/06/06 07:51:25;;;;;;;8.00;5.00;;;19.70;99.90;;;;;;5094893;28;20048;-65
2023/06/06 07:53:52;;;;;;;8.15;4.75;;;19.60;99.90;;;;;;5095403;28;20044;-64
2023/06/06 07:56:20;;;;;;;8.85;4.55;;;19.80;99.90;;;;;;5095091;28;20461;-64
2023/06/06 07:58:51;;;;;;;13.90;5.80;;;19.70;99.90;;;;;;5094830;28;20097;-64
2023/06/06 08:01:21;;;;;;;9.45;4.90;;;19.70;99.90;;;;;;5094806;28;20052;-64
2023/06/06 08:03:50;;;;;;;8.88;5.15;;;19.50;99.90;;;;;;5094730;28;20369;-64
2023/06/06 08:06:17;;;;;;;9.32;4.43;;;19.80;99.90;;;;;;5095301;28;20059;-64
2023/06/06 08:08:48;;;;;;;7.50;4.70;;;19.70;99.90;;;;;;5094529;28;20121;-66
2023/06/06 08:11:15;;;;;;;11.32;4.90;;;19.80;99.90;;;;;;5094584;28;20052;-65
2023/06/06 08:13:41;;;;;;;8.88;4.63;;;19.80;99.90;;;;;;5094795;28;20452;-65
2023/06/06 08:16:08;;;;;;;10.52;5.30;;;19.80;99.90;;;;;;5094668;28;20055;-64
2023/06/06 08:18:35;;;;;;;8.45;4.68;;;19.60;99.90;;;;;;5094258;28;20059;-65
2023/06/06 08:21:01;;;;;;;11.95;5.47;;;19.80;99.90;;;;;;5094604;28;20074;-65
2023/06/06 08:23:28;;;;;;;9.23;5.53;;;19.70;99.90;;;;;;5094593;28;20070;-64
2023/06/06 08:25:55;;;;;;;8.43;4.60;;;19.80;99.90;;;;;;5094732;28;20484;-63
2023/06/06 08:28:23;;;;;;;9.50;4.93;;;19.90;99.90;;;;;;5094110;28;20369;-65
2023/06/06 08:30:51;;;;;;;11.68;5.50;;;20.10;99.90;;;;;;5094198;28;20379;-64
2023/06/06 08:33:19;;;;;;;10.75;5.10;;;20.10;99.90;;;;;;5094452;28;20059;-65
2023/06/06 08:35:46;;;;;;;9.07;4.70;;;20.00;99.90;;;;;;5093872;28;20383;-64
2023/06/06 08:38:13;;;;;;;8.23;4.55;;;20.00;99.90;;;;;;5092783;28;20468;-65
2023/06/06 08:40:39;;;;;;;10.07;5.10;;;19.90;99.90;;;;;;5094240;28;20040;-64
2023/06/06 08:43:12;;;;;;;9.82;5.00;;;20.00;99.90;;;;;;5094463;28;20055;-64
2023/06/06 08:45:47;;;;;;;9.73;5.00;;;20.00;99.90;;;;;;5094024;28;20052;-65
2023/06/06 08:48:14;;;;;;;8.02;5.30;;;20.20;99.90;;;;;;5093999;28;20479;-66
2023/06/06 08:50:42;;;;;;;10.55;5.30;;;20.20;99.90;;;;;;5093506;28;20048;-64
2023/06/06 08:53:08;;;;;;;7.50;4.90;;;20.20;99.90;;;;;;5094095;28;20051;-63
2023/06/06 08:55:36;;;;;;;7.60;5.05;;;20.20;99.90;;;;;;5093484;28;20353;-64
2023/06/06 08:58:04;;;;;;;8.38;5.15;;;20.30;99.90;;;;;;5093506;28;20063;-63
2023/06/06 09:00:30;;;;;;;8.93;4.93;;;20.20;99.90;;;;;;5093475;28;20475;-65
2023/06/06 09:02:59;;;;;;;8.98;5.50;;;20.20;99.90;;;;;;5093622;28;20048;-64
2023/06/06 09:05:25;;;;;;;10.02;5.15;;;20.30;99.90;;;;;;5093554;28;20456;-64
2023/06/06 09:07:55;;;;;;;7.50;4.72;;;20.40;99.90;;;;;;5092473;28;20043;-64
2023/06/06 09:10:22;;;;;;;9.07;5.03;;;20.40;99.90;;;;;;5093690;28;20126;-64
2023/06/06 09:12:49;;;;;;;9.30;4.65;;;20.40;99.90;;;;;;5093804;28;20383;-64
2023/06/06 09:15:16;;;;;;;11.32;4.68;;;20.70;99.90;;;;;;5093607;28;20395;-64
2023/06/06 09:17:46;;;;;;;9.05;4.82;;;20.80;99.90;;;;;;5093252;28;20093;-65
2023/06/06 09:20:16;;;;;;;8.82;4.80;;;20.70;99.90;;;;;;5093397;28;20052;-66
2023/06/06 09:22:46;;;;;;;7.63;5.05;;;20.90;99.90;;;;;;5092977;28;20040;-66
2023/06/06 09:25:20;;;;;;;10.98;4.90;;;20.80;99.90;;;;;;5093524;28;20450;-65
2023/06/06 09:27:57;;;;;;;8.48;4.93;;;20.90;99.90;;;;;;5093060;28;20052;-64
2023/06/06 09:30:25;;;;;;;10.23;4.40;;;20.80;99.90;;;;;;5092860;28;20066;-67
2023/06/06 09:33:00;;;;;;;8.27;4.70;;;21.00;99.90;;;;;;5073311;28;20404;-64
2023/06/06 09:35:30;;;;;;;11.85;4.90;;;21.00;99.90;;;;;;5072945;28;20045;-64
2023/06/06 09:38:07;;;;;;;8.95;4.90;;;21.10;99.90;;;;;;5072704;28;20106;-66
2023/06/06 09:40:46;;;;;;;9.27;5.32;;;21.10;99.90;;;;;;5075110;28;20427;-66
2023/06/06 09:43:13;;;;;;;8.00;4.90;;;21.20;99.90;;;;;;5093105;28;20055;-65
2023/06/06 09:45:52;;;;;;;6.75;4.63;;;21.20;99.90;;;;;;5093018;28;20055;-67
2023/06/06 09:48:22;;;;;;;10.52;4.47;;;21.20;99.90;;;;;;5092622;28;20056;-65
2023/06/06 09:50:50;;;;;;;7.97;5.05;;;21.20;99.90;;;;;;5091427;28;20358;-66
2023/06/06 09:53:16;;;;;;;7.75;5.38;;;21.20;99.90;;;;;;5092890;28;20049;-66
2023/06/06 09:55:44;;;;;;;8.82;5.13;;;21.40;99.90;;;;;;5092493;28;20433;-66
2023/06/06 09:58:16;;;;;;;9.10;5.40;;;21.40;99.90;;;;;;5092334;28;20039;-65
2023/06/06 10:00:44;;;;;;;9.50;5.28;;;21.60;99.90;;;;;;5092436;28;20055;-65
2023/06/06 10:03:18;;;;;;;11.15;5.55;;;21.70;99.90;;;;;;5092573;28;20048;-64
2023/06/06 10:05:48;;;;;;;7.40;5.13;;;21.80;99.90;;;;;;5092553;28;20248;-65
2023/06/06 10:08:19;;;;;;;9.05;5.30;;;21.70;99.90;;;;;;5092148;28;20456;-65
2023/06/06 10:10:49;;;;;;;10.25;5.07;;;21.70;99.90;;;;;;5092511;28;20109;-65
2023/06/06 10:13:18;;;;;;;9.55;4.82;;;21.90;99.90;;;;;;5092587;28;20056;-65
2023/06/06 10:15:45;;;;;;;10.57;5.28;;;21.90;99.90;;;;;;5092104;28;20529;-65
2023/06/06 10:18:12;;;;;;;10.23;5.13;;;21.90;99.90;;;;;;5092109;28;20055;-65
2023/06/06 10:20:39;;;;;;;7.55;4.40;;;22.00;99.90;;;;;;5092020;28;20056;-64
2023/06/06 10:23:06;;;;;;;8.52;4.40;;;21.80;99.90;;;;;;5092397;28;20048;-64
2023/06/06 10:25:34;;;;;;;8.98;4.80;;;22.00;99.90;;;;;;5092310;28;20467;-65
2023/06/06 10:28:15;;;;;;;6.90;4.72;;;22.10;99.90;;;;;;5091980;28;20056;-65
2023/06/06 10:30:57;;;;;;;10.82;5.35;;;22.10;99.90;;;;;;5091783;28;20056;-65
2023/06/06 10:33:53;;;;;;;11.10;5.03;;;22.00;99.90;;;;;;5092291;28;20047;-65
2023/06/06 10:36:19;;;;;;;9.45;5.32;;;22.00;99.90;;;;;;5092062;28;20040;-63
2023/06/06 10:39:23;;;;;;;7.75;4.50;;;22.10;99.90;;;;;;5092299;28;20052;-65
2023/06/06 10:41:54;;;;;;;12.88;5.07;;;22.00;99.90;;;;;;5092026;28;20370;-64
2023/06/06 10:44:25;;;;;;;9.40;4.70;;;22.30;99.90;;;;;;5092211;28;20071;-64
2023/06/06 10:47:11;;;;;;;9.98;5.20;;;22.40;99.90;;;;;;5091755;28;20120;-64
2023/06/06 10:49:42;;;;;;;7.40;4.97;;;22.30;99.90;;;;;;5091579;28;20072;-64
2023/06/06 10:52:08;;;;;;;8.90;4.50;;;22.40;99.90;;;;;;5091732;28;20101;-65
2023/06/06 10:54:35;;;;;;;8.60;4.82;;;22.50;99.90;;;;;;5091984;28;20052;-65
2023/06/06 10:57:01;;;;;;;8.80;4.68;;;22.60;99.90;;;;;;5091474;28;20048;-65
2023/06/06 10:59:30;;;;;;;8.75;5.30;;;22.60;99.90;;;;;;5091764;28;20063;-64
2023/06/06 11:01:57;;;;;;;7.40;4.93;;;22.60;99.90;;;;;;5093374;28;20356;-64
2023/06/06 11:04:26;;;;;;;8.38;4.88;;;22.70;99.90;;;;;;5095745;28;20519;-66
2023/06/06 11:06:58;;;;;;;7.93;4.47;;;22.70;99.90;;;;;;5095822;28;20101;-65
2023/06/06 11:09:32;;;;;;;8.98;4.97;;;22.70;99.90;;;;;;5095882;28;20063;-65
2023/06/06 11:12:27;;;;;;;10.02;5.72;;;22.70;99.70;;;;;;5096057;28;20064;-65
2023/06/06 11:15:07;;;;;;;7.72;4.78;;;22.60;99.90;;;;;;5093471;28;20086;-65
2023/06/06 11:17:49;;;;;;;8.95;4.75;;;22.70;99.70;;;;;;5094331;28;20052;-65
2023/06/06 11:20:20;;;;;;;8.68;4.97;;;22.70;99.90;;;;;;5095379;28;20465;-65
2023/06/06 11:23:01;;;;;;;8.68;5.22;;;22.80;99.90;;;;;;5095531;28;20102;-65
2023/06/06 11:25:37;;;;;;;7.50;5.22;;;22.90;99.80;;;;;;5095663;28;20044;-65
2023/06/06 11:28:04;;;;;;;9.80;4.63;;;22.90;99.50;;;;;;5095208;28;20055;-64
2023/06/06 11:30:32;;;;;;;11.82;4.93;;;22.90;99.60;;;;;;5094847;28;20055;-66
2023/06/06 11:33:02;;;;;;;12.73;5.28;;;22.90;99.50;;;;;;5075268;28;20051;-64
2023/06/06 11:35:28;;;;;;;7.75;4.93;;;22.80;99.80;;;;;;5075937;28;20040;-66
2023/06/06 11:37:56;;;;;;;7.35;4.25;;;23.10;99.70;;;;;;5075535;28;20469;-66
2023/06/06 11:40:28;;;;;;;8.18;4.50;;;23.20;99.60;;;;;;5074077;28;20473;-64
2023/06/06 11:42:54;;;;;;;9.05;5.93;;;23.30;99.40;;;;;;5093719;28;20064;-65
2023/06/06 11:45:21;;;;;;;8.30;4.80;;;23.20;99.10;;;;;;5094641;28;20044;-66
2023/06/06 11:47:51;;;;;;;9.65;4.97;;;23.20;99.20;;;;;;5094804;28;20067;-64
2023/06/06 11:50:35;;;;;;;7.18;5.07;;;23.20;99.30;;;;;;5095098;28;20074;-65
2023/06/06 11:53:05;;;;;;;10.38;5.10;;;23.10;99.00;;;;;;5074971;28;20044;-65
2023/06/06 11:55:35;;;;;;;8.00;4.72;;;23.20;99.30;;;;;;5074937;28;20052;-66
2023/06/06 11:58:03;;;;;;;8.95;5.32;;;23.20;99.50;;;;;;5074515;28;20107;-65
2023/06/06 12:00:30;;;;;;;8.48;5.30;;;23.10;99.50;;;;;;5075158;28;20044;-65
2023/06/06 12:02:59;;;;;;;7.13;4.68;;;23.30;99.50;;;;;;5093997;28;20143;-64
2023/06/06 12:05:26;;;;;;;9.35;4.72;;;23.50;99.40;;;;;;5093915;28;20055;-63
2023/06/06 12:07:57;;;;;;;10.13;5.10;;;23.30;99.30;;;;;;5094810;28;20113;-65
2023/06/06 12:10:27;;;;;;;10.50;4.82;;;23.30;99.40;;;;;;5094825;28;20113;-66
2023/06/06 12:12:53;;;;;;;7.82;4.90;;;23.30;99.80;;;;;;5093636;28;20468;-65
2023/06/06 12:15:20;;;;;;;6.38;4.97;;;23.30;99.50;;;;;;5094814;28;20117;-65
2023/06/06 12:17:46;;;;;;;7.30;4.70;;;23.50;99.50;;;;;;5094276;28;20067;-64
2023/06/06 12:20:24;;;;;;;8.85;4.88;;;23.60;99.40;;;;;;5094596;28;20048;-65
2023/06/06 12:22:51;;;;;;;8.23;5.10;;;23.70;99.20;;;;;;5094255;28;20332;-65
2023/06/06 12:25:27;;;;;;;9.43;4.90;;;23.70;99.20;;;;;;5094815;28;20040;-64
2023/06/06 12:28:06;;;;;;;7.78;4.80;;;23.70;99.20;;;;;;5094127;28;20048;-65
2023/06/06 12:30:33;;;;;;;9.20;5.57;;;23.50;98.60;;;;;;5094003;28;20052;-64
2023/06/06 12:33:03;;;;;;;8.98;6.00;;;23.50;99.00;;;;;;5094433;28;20043;-65
2023/06/06 12:35:30;;;;;;;9.05;5.47;;;23.40;99.10;;;;;;5094264;28;20052;-64
2023/06/06 12:37:56;;;;;;;8.52;5.72;;;23.60;99.00;;;;;;5093866;28;20056;-64
2023/06/06 12:40:27;;;;;;;10.15;5.25;;;23.50;99.10;;;;;;5094532;28;20059;-65
2023/06/06 12:42:57;;;;;;;10.50;5.90;;;23.60;99.20;;;;;;5094052;28;20051;-65
2023/06/06 12:45:25;;;;;;;9.52;5.03;;;23.70;98.70;;;;;;5094136;28;20048;-65
2023/06/06 12:47:53;;;;;;;7.70;5.30;;;23.60;98.90;;;;;;5093898;28;20051;-65
2023/06/06 12:50:20;;;;;;;9.15;5.60;;;23.80;98.80;;;;;;5094173;28;20048;-64